createdAt,value
2016-06-14T00:00:20.944Z,0
2016-06-14T00:01:19.526Z,0
2016-06-14T00:02:19.404Z,0
2016-06-14T00:03:33.484Z,0
2016-06-14T00:04:19.550Z,0
2016-06-14T00:05:33.459Z,0
2016-06-14T00:06:19.400Z,0
2016-06-14T00:07:18.950Z,0
2016-06-14T00:09:19.425Z,0
2016-06-14T00:10:19.412Z,0
2016-06-14T00:11:33.524Z,0
2016-06-14T00:12:19.357Z,0
2016-06-14T00:13:19.452Z,0
2016-06-14T00:14:20.033Z,0
2016-06-14T00:15:33.991Z,0
2016-06-14T00:17:19.965Z,0
2016-06-14T00:18:20.093Z,0
2016-06-14T00:20:33.334Z,0
2016-06-14T00:21:19.743Z,0
2016-06-14T00:23:33.483Z,0
2016-06-14T00:24:19.580Z,0
2016-06-14T00:25:19.989Z,0
2016-06-14T00:26:19.742Z,0
2016-06-14T00:27:19.995Z,0
2016-06-14T00:28:20.030Z,0
2016-06-14T00:29:48.065Z,0
2016-06-14T00:30:20.348Z,0
2016-06-14T00:31:33.414Z,0
2016-06-14T00:32:20.230Z,0
2016-06-14T00:33:19.811Z,0
2016-06-14T00:34:33.891Z,0
2016-06-14T00:35:34.052Z,0
2016-06-14T00:37:33.417Z,0
2016-06-14T00:38:33.607Z,0
2016-06-14T00:41:19.710Z,0
2016-06-14T00:42:33.901Z,0
2016-06-14T00:43:20.139Z,0
2016-06-14T00:44:19.330Z,0
2016-06-14T00:45:33.285Z,0
2016-06-14T00:46:19.461Z,0
2016-06-14T00:47:34.181Z,0
2016-06-14T00:48:19.888Z,0
2016-06-14T00:49:19.735Z,0
2016-06-14T00:50:19.910Z,0
2016-06-14T00:51:19.929Z,0
2016-06-14T00:52:19.963Z,0
2016-06-14T00:53:19.950Z,0
2016-06-14T00:54:19.751Z,0
2016-06-14T00:55:33.816Z,0
2016-06-14T00:56:33.882Z,0
2016-06-14T00:57:20.432Z,0
2016-06-14T00:58:19.387Z,0
2016-06-14T00:59:21.235Z,0
2016-06-14T01:00:20.410Z,0
2016-06-14T01:01:20.413Z,0
2016-06-14T01:02:34.275Z,0
2016-06-14T01:03:19.809Z,0
2016-06-14T01:04:20.437Z,0
2016-06-14T01:05:34.926Z,0
2016-06-14T01:06:20.240Z,0
2016-06-14T01:07:20.291Z,0
2016-06-14T01:08:19.856Z,0
2016-06-14T01:09:20.452Z,0
2016-06-14T01:10:20.269Z,0
2016-06-14T01:11:33.928Z,0
2016-06-14T01:12:19.415Z,0
2016-06-14T01:13:20.294Z,0
2016-06-14T01:14:48.250Z,0
2016-06-14T01:15:20.143Z,0
2016-06-14T01:16:34.583Z,0
2016-06-14T01:18:34.372Z,0
2016-06-14T01:20:19.455Z,0
2016-06-14T01:21:34.021Z,0
2016-06-14T01:23:20.199Z,0
2016-06-14T01:24:34.639Z,0
2016-06-14T01:25:20.174Z,0
2016-06-14T01:26:20.349Z,0
2016-06-14T01:28:33.543Z,0
2016-06-14T01:29:20.389Z,0
2016-06-14T01:30:20.377Z,0
2016-06-14T01:31:20.052Z,0
2016-06-14T01:32:20.023Z,0
2016-06-14T01:34:20.248Z,0
2016-06-14T01:35:34.486Z,0
2016-06-14T01:36:48.146Z,0
2016-06-14T01:37:19.507Z,0
2016-06-14T01:38:20.073Z,0
2016-06-14T01:39:19.764Z,0
2016-06-14T01:40:34.345Z,0
2016-06-14T01:41:20.269Z,0
2016-06-14T01:42:20.476Z,0
2016-06-14T01:43:33.839Z,0
2016-06-14T01:44:19.951Z,0
2016-06-14T01:45:35.157Z,0
2016-06-14T01:46:34.316Z,0
2016-06-14T01:48:20.260Z,0
2016-06-14T01:49:20.325Z,0
2016-06-14T01:50:34.250Z,0
2016-06-14T01:51:20.223Z,0
2016-06-14T01:52:23.178Z,0
2016-06-14T01:53:20.182Z,0
2016-06-14T01:54:20.153Z,0
2016-06-14T01:55:48.485Z,0
2016-06-14T01:57:20.147Z,0
2016-06-14T01:58:34.275Z,0
2016-06-14T01:59:34.888Z,0
2016-06-14T02:00:34.469Z,0
2016-06-14T02:01:21.081Z,0
2016-06-14T02:02:20.209Z,0
2016-06-14T02:03:20.056Z,0
2016-06-14T02:04:20.263Z,0
2016-06-14T02:05:34.703Z,0
2016-06-14T02:06:20.457Z,0
2016-06-14T02:07:34.944Z,0
2016-06-14T02:08:20.619Z,0
2016-06-14T02:09:34.153Z,0
2016-06-14T02:10:34.312Z,0
2016-06-14T02:11:20.487Z,0
2016-06-14T02:12:20.631Z,0
2016-06-14T02:13:20.243Z,0
2016-06-14T02:14:34.997Z,0
2016-06-14T02:15:34.452Z,0
2016-06-14T02:16:35.221Z,0
2016-06-14T02:17:20.271Z,0
2016-06-14T02:18:20.322Z,0
2016-06-14T02:19:20.292Z,0
2016-06-14T02:20:20.842Z,0
2016-06-14T02:21:19.784Z,0
2016-06-14T02:22:20.489Z,0
2016-06-14T02:23:20.493Z,0
2016-06-14T02:24:20.730Z,0
2016-06-14T02:25:21.186Z,0
2016-06-14T02:26:20.627Z,0
2016-06-14T02:27:20.521Z,0
2016-06-14T02:28:20.570Z,0
2016-06-14T02:29:20.542Z,0
2016-06-14T02:30:20.670Z,0
2016-06-14T02:32:20.567Z,0
2016-06-14T02:33:21.398Z,0
2016-06-14T02:34:20.621Z,0
2016-06-14T02:35:34.655Z,0
2016-06-14T02:36:21.032Z,0
2016-06-14T02:37:20.411Z,0
2016-06-14T02:38:20.617Z,0
2016-06-14T02:39:20.401Z,0
2016-06-14T02:40:20.639Z,0
2016-06-14T02:41:20.392Z,0
2016-06-14T02:42:20.818Z,0
2016-06-14T02:43:20.632Z,0
2016-06-14T02:44:35.308Z,5
2016-06-14T02:45:20.545Z,5
2016-06-14T02:46:20.454Z,5
2016-06-14T02:47:20.661Z,5
2016-06-14T02:48:21.320Z,5
2016-06-14T02:50:20.373Z,5
2016-06-14T02:51:21.095Z,5
2016-06-14T02:52:20.894Z,5
2016-06-14T02:53:35.054Z,10
2016-06-14T02:54:20.822Z,10
2016-06-14T02:55:20.263Z,10
2016-06-14T02:56:20.548Z,10
2016-06-14T02:57:34.941Z,10
2016-06-14T02:59:48.979Z,15
2016-06-14T03:00:21.403Z,15
2016-06-14T03:01:21.141Z,15
2016-06-14T03:02:21.332Z,15
2016-06-14T03:03:20.866Z,15
2016-06-14T03:04:20.838Z,20
2016-06-14T03:05:21.013Z,20
2016-06-14T03:06:20.594Z,20
2016-06-14T03:07:21.223Z,20
2016-06-14T03:09:21.040Z,25
2016-06-14T03:10:20.809Z,25
2016-06-14T03:11:20.093Z,25
2016-06-14T03:12:34.863Z,30
2016-06-14T03:13:21.272Z,30
2016-06-14T03:14:35.211Z,35
2016-06-14T03:15:34.808Z,40
2016-06-14T03:16:20.718Z,40
2016-06-14T03:17:21.065Z,40
2016-06-14T03:20:21.059Z,40
2016-06-14T03:21:20.858Z,40
2016-06-14T03:22:49.002Z,40
2016-06-14T03:23:20.974Z,40
2016-06-14T03:24:35.400Z,40
2016-06-14T03:25:34.980Z,40
2016-06-14T03:26:20.498Z,40
2016-06-14T03:27:20.690Z,40
2016-06-14T03:28:20.255Z,40
2016-06-14T03:29:20.711Z,40
2016-06-14T03:30:21.465Z,40
2016-06-14T03:31:20.701Z,35
2016-06-14T03:32:20.455Z,35
2016-06-14T03:33:21.177Z,35
2016-06-14T03:34:20.945Z,35
2016-06-14T03:35:35.042Z,35
2016-06-14T03:36:34.842Z,35
2016-06-14T03:37:34.907Z,30
2016-06-14T03:38:20.958Z,30
2016-06-14T03:39:20.618Z,30
2016-06-14T03:40:35.058Z,30
2016-06-14T03:41:20.982Z,30
2016-06-14T03:42:21.204Z,35
2016-06-14T03:43:20.833Z,35
2016-06-14T03:44:20.867Z,35
2016-06-14T03:45:21.276Z,40
2016-06-14T03:47:21.470Z,40
2016-06-14T03:48:20.848Z,45
2016-06-14T03:49:21.038Z,45
2016-06-14T03:51:21.294Z,50
2016-06-14T03:52:35.125Z,55
2016-06-14T03:53:35.566Z,60
2016-06-14T03:54:21.320Z,60
2016-06-14T03:55:20.917Z,65
2016-06-14T03:56:35.169Z,70
2016-06-14T03:57:20.923Z,70
2016-06-14T03:58:21.129Z,70
2016-06-14T03:59:21.147Z,65
2016-06-14T04:00:35.353Z,65
2016-06-14T04:01:20.919Z,65
2016-06-14T04:02:35.438Z,65
2016-06-14T04:03:34.987Z,65
2016-06-14T04:04:20.679Z,70
2016-06-14T04:05:20.947Z,70
2016-06-14T04:06:21.231Z,70
2016-06-14T04:07:21.187Z,75
2016-06-14T04:09:35.022Z,95
2016-06-14T04:10:21.180Z,105
2016-06-14T04:11:21.012Z,115
2016-06-14T04:12:20.984Z,120
2016-06-14T04:13:21.081Z,120
2016-06-14T04:14:21.006Z,125
2016-06-14T04:15:21.243Z,130
2016-06-14T04:16:21.387Z,130
2016-06-14T04:17:35.280Z,130
2016-06-14T04:18:21.627Z,135
2016-06-14T04:19:21.631Z,135
2016-06-14T04:20:35.119Z,140
2016-06-14T04:21:21.261Z,145
2016-06-14T04:22:22.093Z,150
2016-06-14T04:23:21.111Z,160
2016-06-14T04:24:35.146Z,155
2016-06-14T04:25:21.118Z,155
2016-06-14T04:26:21.277Z,155
2016-06-14T04:27:21.296Z,150
2016-06-14T04:28:35.175Z,150
2016-06-14T04:30:35.305Z,140
2016-06-14T04:31:21.356Z,140
2016-06-14T04:32:21.562Z,140
2016-06-14T04:34:35.427Z,150
2016-06-14T04:36:21.385Z,160
2016-06-14T04:37:21.810Z,170
2016-06-14T04:38:21.424Z,180
2016-06-14T04:39:21.833Z,175
2016-06-14T04:40:21.601Z,160
2016-06-14T04:41:35.464Z,160
2016-06-14T04:42:21.654Z,150
2016-06-14T04:43:21.470Z,145
2016-06-14T04:44:21.238Z,145
2016-06-14T04:45:36.601Z,165
2016-06-14T04:47:20.967Z,205
2016-06-14T04:48:21.455Z,230
2016-06-14T04:49:21.722Z,245
2016-06-14T04:50:21.148Z,255
2016-06-14T04:51:35.573Z,260
2016-06-14T04:52:21.717Z,255
2016-06-14T04:53:21.923Z,250
2016-06-14T04:54:21.301Z,230
2016-06-14T04:55:21.319Z,230
2016-06-14T04:57:35.451Z,215
2016-06-14T04:58:21.547Z,215
2016-06-14T04:59:21.550Z,210
2016-06-14T05:00:21.553Z,205
2016-06-14T05:01:22.401Z,200
2016-06-14T05:02:22.232Z,195
2016-06-14T05:03:21.985Z,190
2016-06-14T05:04:21.129Z,185
2016-06-14T05:05:21.897Z,190
2016-06-14T05:06:21.447Z,195
2016-06-14T05:07:21.653Z,200
2016-06-14T05:08:35.969Z,220
2016-06-14T05:09:22.097Z,230
2016-06-14T05:10:21.490Z,240
2016-06-14T05:11:21.479Z,245
2016-06-14T05:12:22.450Z,250
2016-06-14T05:13:49.844Z,265
2016-06-14T05:14:21.956Z,275
2016-06-14T05:17:36.012Z,290
2016-06-14T05:18:35.812Z,285
2016-06-14T05:19:36.440Z,275
2016-06-14T05:20:36.428Z,260
2016-06-14T05:21:36.040Z,260
2016-06-14T05:26:21.837Z,285
2016-06-14T05:28:22.031Z,275
2016-06-14T05:29:21.862Z,275
2016-06-14T05:30:22.380Z,275
2016-06-14T05:31:35.929Z,280
2016-06-14T05:32:21.699Z,280
2016-06-14T05:33:21.889Z,280
2016-06-14T05:34:35.939Z,265
2016-06-14T05:35:22.099Z,260
2016-06-14T05:36:22.071Z,260
2016-06-14T05:37:22.308Z,255
2016-06-14T05:39:21.704Z,270
2016-06-14T05:40:22.129Z,275
2016-06-14T05:41:22.180Z,285
2016-06-14T05:43:35.827Z,320
2016-06-14T05:44:21.986Z,335
2016-06-14T05:45:22.598Z,350
2016-06-14T05:46:23.679Z,365
2016-06-14T05:47:22.307Z,385
2016-06-14T05:48:36.154Z,390
2016-06-14T05:50:21.816Z,365
2016-06-14T05:51:21.867Z,360
2016-06-14T05:52:22.073Z,360
2016-06-14T05:53:22.123Z,365
2016-06-14T05:54:22.157Z,365
2016-06-14T05:55:22.348Z,360
2016-06-14T05:56:36.835Z,335
2016-06-14T05:57:22.354Z,310
2016-06-14T05:58:36.623Z,280
2016-06-14T05:59:22.032Z,265
2016-06-14T06:00:22.597Z,260
2016-06-14T06:01:22.788Z,260
2016-06-14T06:02:22.807Z,260
2016-06-14T06:03:22.373Z,250
2016-06-14T06:04:36.064Z,240
2016-06-14T06:05:22.191Z,240
2016-06-14T06:06:22.241Z,245
2016-06-14T06:07:22.541Z,255
2016-06-14T06:08:22.060Z,260
2016-06-14T06:09:22.032Z,270
2016-06-14T06:11:36.381Z,285
2016-06-14T06:12:36.197Z,290
2016-06-14T06:13:36.184Z,290
2016-06-14T06:14:22.000Z,295
2016-06-14T06:16:35.866Z,300
2016-06-14T06:17:22.384Z,305
2016-06-14T06:18:50.513Z,330
2016-06-14T06:20:36.346Z,310
2016-06-14T06:21:22.428Z,305
2016-06-14T06:22:22.681Z,310
2016-06-14T06:23:22.481Z,310
2016-06-14T06:24:22.437Z,310
2016-06-14T06:25:22.690Z,315
2016-06-14T06:26:36.521Z,310
2016-06-14T06:27:23.274Z,310
2016-06-14T06:28:23.122Z,315
2016-06-14T06:29:22.483Z,325
2016-06-14T06:30:22.519Z,340
2016-06-14T06:31:22.912Z,355
2016-06-14T06:32:22.743Z,365
2016-06-14T06:33:22.465Z,365
2016-06-14T06:34:22.343Z,370
2016-06-14T06:35:22.096Z,370
2016-06-14T06:36:22.365Z,370
2016-06-14T06:37:36.868Z,370
2016-06-14T06:38:36.511Z,370
2016-06-14T06:39:22.467Z,380
2016-06-14T06:40:22.486Z,380
2016-06-14T06:42:22.415Z,385
2016-06-14T06:43:22.433Z,385
2016-06-14T06:44:36.561Z,375
2016-06-14T06:45:36.808Z,365
2016-06-14T06:46:36.648Z,365
2016-06-14T06:47:23.081Z,360
2016-06-14T06:48:23.857Z,380
2016-06-14T06:49:22.666Z,400
2016-06-14T06:51:36.427Z,375
2016-06-14T06:52:22.648Z,380
2016-06-14T06:53:23.196Z,405
2016-06-14T06:54:22.854Z,405
2016-06-14T06:55:23.022Z,410
2016-06-14T06:56:22.389Z,430
2016-06-14T06:57:22.896Z,440
2016-06-14T06:58:51.421Z,460
2016-06-14T06:59:24.366Z,465
2016-06-14T07:00:23.622Z,470
2016-06-14T07:01:24.643Z,470
2016-06-14T07:02:36.789Z,475
2016-06-14T07:03:37.730Z,480
2016-06-14T07:04:22.705Z,480
2016-06-14T07:05:23.223Z,485
2016-06-14T07:06:37.118Z,475
2016-06-14T07:07:22.997Z,475
2016-06-14T07:08:22.610Z,465
2016-06-14T07:09:23.081Z,465
2016-06-14T07:10:23.085Z,460
2016-06-14T07:11:23.449Z,425
2016-06-14T07:12:37.577Z,415
2016-06-14T07:13:23.501Z,395
2016-06-14T07:14:23.802Z,355
2016-06-14T07:15:23.587Z,340
2016-06-14T07:16:24.246Z,330
2016-06-14T07:17:22.999Z,315
2016-06-14T07:18:37.267Z,360
2016-06-14T07:19:37.850Z,370
2016-06-14T07:20:23.617Z,365
2016-06-14T07:21:23.418Z,355
2016-06-14T07:22:23.234Z,355
2016-06-14T07:23:37.330Z,310
2016-06-14T07:24:23.740Z,270
2016-06-14T07:25:23.414Z,270
2016-06-14T07:26:22.761Z,270
2016-06-14T07:27:23.686Z,235
2016-06-14T07:28:23.267Z,275
2016-06-14T07:29:23.489Z,290
2016-06-14T07:30:38.258Z,300
2016-06-14T07:34:38.285Z,255
2016-06-14T07:35:23.992Z,205
2016-06-14T07:36:37.667Z,155
2016-06-14T07:37:23.841Z,160
2016-06-14T07:38:23.266Z,160
2016-06-14T07:39:23.801Z,125
2016-06-14T07:40:24.273Z,120
2016-06-14T07:41:23.807Z,130
2016-06-14T07:42:24.310Z,150
2016-06-14T07:43:23.891Z,175
2016-06-14T07:45:23.555Z,210
2016-06-14T07:46:24.338Z,225
2016-06-14T07:47:23.935Z,240
2016-06-14T07:48:23.485Z,300
2016-06-14T07:49:23.832Z,355
2016-06-14T07:50:23.428Z,425
2016-06-14T07:52:37.560Z,335
2016-06-14T07:53:38.063Z,385
2016-06-14T07:54:23.863Z,420
2016-06-14T07:55:23.803Z,425
2016-06-14T07:56:38.041Z,385
2016-06-14T07:57:23.888Z,380
2016-06-14T07:58:24.719Z,360
2016-06-14T07:59:23.925Z,350
2016-06-14T08:00:24.304Z,345
2016-06-14T08:01:24.181Z,330
2016-06-14T08:02:23.919Z,325
2016-06-14T08:03:23.953Z,320
2016-06-14T08:04:23.784Z,305
2016-06-14T08:05:23.975Z,290
2016-06-14T08:06:37.602Z,275
2016-06-14T08:07:23.965Z,270
2016-06-14T08:08:23.312Z,265
2016-06-14T08:09:38.112Z,275
2016-06-14T08:10:24.084Z,285
2016-06-14T08:11:23.806Z,315
2016-06-14T08:12:24.730Z,350
2016-06-14T08:13:24.671Z,375
2016-06-14T08:14:23.752Z,365
2016-06-14T08:15:23.787Z,375
2016-06-14T08:16:23.961Z,385
2016-06-14T08:17:23.964Z,410
2016-06-14T08:18:24.015Z,440
2016-06-14T08:19:52.768Z,455
2016-06-14T08:20:24.380Z,455
2016-06-14T08:21:24.602Z,425
2016-06-14T08:22:24.433Z,355
2016-06-14T08:23:23.983Z,330
2016-06-14T08:24:24.190Z,335
2016-06-14T08:25:38.848Z,355
2016-06-14T08:26:38.320Z,375
2016-06-14T08:27:38.558Z,385
2016-06-14T08:28:26.593Z,385
2016-06-14T08:29:25.611Z,380
2016-06-14T08:31:24.633Z,330
2016-06-14T08:32:26.980Z,335
2016-06-14T08:33:24.326Z,335
2016-06-14T08:34:24.408Z,370
2016-06-14T08:35:37.911Z,420
2016-06-14T08:36:24.148Z,430
2016-06-14T08:37:24.760Z,395
2016-06-14T08:38:23.685Z,350
2016-06-14T08:39:25.220Z,340
2016-06-14T08:40:24.613Z,340
2016-06-14T08:41:24.633Z,345
2016-06-14T08:43:24.497Z,345
2016-06-14T08:44:38.329Z,350
2016-06-14T08:45:24.284Z,360
2016-06-14T08:46:25.820Z,385
2016-06-14T08:47:24.151Z,420
2016-06-14T08:48:25.185Z,440
2016-06-14T08:49:24.751Z,430
2016-06-14T08:51:25.366Z,460
2016-06-14T08:52:38.431Z,425
2016-06-14T08:53:52.919Z,410
2016-06-14T08:54:24.438Z,400
2016-06-14T08:55:25.237Z,395
2016-06-14T08:56:53.569Z,405
2016-06-14T08:57:38.416Z,390
2016-06-14T08:58:39.512Z,420
2016-06-14T08:59:23.965Z,470
2016-06-14T09:00:24.503Z,500
2016-06-14T09:01:40.397Z,485
2016-06-14T09:03:24.919Z,475
2016-06-14T09:04:25.718Z,475
2016-06-14T09:05:25.362Z,440
2016-06-14T09:06:24.756Z,435
2016-06-14T09:07:38.697Z,455
2016-06-14T09:08:24.981Z,480
2016-06-14T09:09:38.655Z,515
2016-06-14T09:10:38.924Z,500
2016-06-14T09:11:24.646Z,495
2016-06-14T09:12:24.681Z,525
2016-06-14T09:13:38.325Z,540
2016-06-14T09:14:24.906Z,490
2016-06-14T09:15:25.315Z,425
2016-06-14T09:16:25.162Z,385
2016-06-14T09:17:24.946Z,335
2016-06-14T09:19:24.889Z,290
2016-06-14T09:20:39.050Z,330
2016-06-14T09:21:38.880Z,335
2016-06-14T09:22:24.974Z,340
2016-06-14T09:23:38.871Z,375
2016-06-14T09:24:24.871Z,390
2016-06-14T09:25:24.843Z,375
2016-06-14T09:26:24.877Z,340
2016-06-14T09:28:25.071Z,225
2016-06-14T09:29:52.967Z,240
2016-06-14T09:30:38.986Z,260
2016-06-14T09:31:26.130Z,270
2016-06-14T09:32:25.633Z,275
2016-06-14T09:33:53.324Z,280
2016-06-14T09:34:25.137Z,290
2016-06-14T09:35:25.217Z,325
2016-06-14T09:36:25.833Z,365
2016-06-14T09:37:39.086Z,395
2016-06-14T09:39:25.480Z,390
2016-06-14T09:40:25.280Z,430
2016-06-14T09:41:24.891Z,465
2016-06-14T09:42:25.286Z,495
2016-06-14T09:43:25.273Z,510
2016-06-14T09:44:26.139Z,485
2016-06-14T09:45:25.014Z,470
2016-06-14T09:47:25.130Z,450
2016-06-14T09:48:25.335Z,390
2016-06-14T09:50:25.357Z,290
2016-06-14T09:51:25.422Z,240
2016-06-14T09:52:25.629Z,195
2016-06-14T09:53:25.631Z,165
2016-06-14T09:54:25.432Z,145
2016-06-14T09:55:25.482Z,140
2016-06-14T09:56:39.941Z,125
2016-06-14T09:57:25.675Z,120
2016-06-14T09:58:24.803Z,120
2016-06-14T09:59:25.322Z,105
2016-06-14T10:00:25.512Z,105
2016-06-14T10:01:26.988Z,115
2016-06-14T10:02:26.082Z,140
2016-06-14T10:03:25.772Z,175
2016-06-14T10:04:25.915Z,225
2016-06-14T10:05:25.919Z,265
2016-06-14T10:06:26.203Z,315
2016-06-14T10:07:26.144Z,355
2016-06-14T10:08:53.572Z,400
2016-06-14T10:09:25.634Z,410
2016-06-14T10:10:25.918Z,415
2016-06-14T10:11:25.187Z,410
2016-06-14T10:13:25.740Z,455
2016-06-14T10:14:26.337Z,440
2016-06-14T10:15:25.527Z,420
2016-06-14T10:16:25.843Z,385
2016-06-14T10:17:39.881Z,225
2016-06-14T10:18:24.943Z,190
2016-06-14T10:21:26.874Z,195
2016-06-14T10:22:26.955Z,250
2016-06-14T10:23:25.818Z,310
2016-06-14T10:24:26.696Z,330
2016-06-14T10:25:40.624Z,335
2016-06-14T10:26:40.705Z,335
2016-06-14T10:27:39.990Z,345
2016-06-14T10:28:40.289Z,345
2016-06-14T10:29:26.555Z,335
2016-06-14T10:30:26.026Z,325
2016-06-14T10:32:26.360Z,370
2016-06-14T10:33:26.068Z,400
2016-06-14T10:34:40.369Z,430
2016-06-14T10:35:26.151Z,425
2016-06-14T10:36:40.017Z,400
2016-06-14T10:37:26.564Z,380
2016-06-14T10:38:40.586Z,365
2016-06-14T10:39:40.496Z,375
2016-06-14T10:40:25.871Z,380
2016-06-14T10:41:26.529Z,385
2016-06-14T10:43:26.535Z,370
2016-06-14T10:44:40.605Z,380
2016-06-14T10:45:26.636Z,390
2016-06-14T10:46:26.685Z,410
2016-06-14T10:47:27.579Z,420
2016-06-14T10:48:26.706Z,420
2016-06-14T10:49:26.709Z,420
2016-06-14T10:50:40.857Z,435
2016-06-14T10:51:40.438Z,440
2016-06-14T10:52:26.969Z,460
2016-06-14T10:53:40.945Z,505
2016-06-14T10:54:30.791Z,540
2016-06-14T10:55:26.635Z,535
2016-06-14T10:56:26.966Z,525
2016-06-14T10:57:26.204Z,530
2016-06-14T10:58:26.706Z,535
2016-06-14T10:59:26.709Z,560
2016-06-14T11:00:26.712Z,570
2016-06-14T11:01:27.575Z,505
2016-06-14T11:02:41.050Z,495
2016-06-14T11:03:25.925Z,425
2016-06-14T11:04:26.709Z,410
2016-06-14T11:06:26.809Z,500
2016-06-14T11:07:41.050Z,475
2016-06-14T11:08:26.878Z,455
2016-06-14T11:09:40.884Z,390
2016-06-14T11:10:26.868Z,365
2016-06-14T11:11:26.605Z,370
2016-06-14T11:12:27.796Z,420
2016-06-14T11:14:41.603Z,460
2016-06-14T11:15:40.746Z,405
2016-06-14T11:16:28.215Z,385
2016-06-14T11:17:41.002Z,320
2016-06-14T11:19:27.115Z,320
2016-06-14T11:20:41.591Z,365
2016-06-14T11:21:26.716Z,380
2016-06-14T11:22:27.061Z,420
2016-06-14T11:23:41.084Z,425
2016-06-14T11:24:27.131Z,405
2016-06-14T11:25:27.070Z,395
2016-06-14T11:26:27.559Z,375
2016-06-14T11:27:28.062Z,365
2016-06-14T11:28:26.736Z,355
2016-06-14T11:29:41.024Z,370
2016-06-14T11:30:26.914Z,370
2016-06-14T11:31:27.527Z,350
2016-06-14T11:32:41.658Z,315
2016-06-14T11:33:40.911Z,330
2016-06-14T11:34:27.708Z,335
2016-06-14T11:35:27.101Z,295
2016-06-14T11:37:27.421Z,340
2016-06-14T11:38:27.611Z,330
2016-06-14T11:39:28.130Z,340
2016-06-14T11:40:27.320Z,320
2016-06-14T11:41:27.588Z,375
2016-06-14T11:42:27.717Z,330
2016-06-14T11:43:27.470Z,345
2016-06-14T11:44:27.661Z,355
2016-06-14T11:45:27.507Z,295
2016-06-14T11:46:28.792Z,280
2016-06-14T11:47:27.982Z,275
2016-06-14T11:48:27.235Z,290
2016-06-14T11:49:29.238Z,310
2016-06-14T11:50:26.883Z,345
2016-06-14T11:51:41.576Z,340
2016-06-14T11:52:27.420Z,325
2016-06-14T11:54:41.851Z,295
2016-06-14T11:55:28.991Z,305
2016-06-14T11:56:41.481Z,325
2016-06-14T11:58:28.282Z,350
2016-06-14T11:59:27.410Z,350
2016-06-14T12:00:27.710Z,390
2016-06-14T12:01:27.556Z,410
2016-06-14T12:02:28.950Z,425
2016-06-14T12:03:40.801Z,435
2016-06-14T12:04:28.004Z,485
2016-06-14T12:05:27.866Z,480
2016-06-14T12:07:27.574Z,395
2016-06-14T12:08:27.578Z,380
2016-06-14T12:09:27.972Z,390
2016-06-14T12:10:27.662Z,415
2016-06-14T12:11:42.090Z,465
2016-06-14T12:12:28.184Z,470
2016-06-14T12:13:55.924Z,465
2016-06-14T12:14:28.018Z,465
2016-06-14T12:15:28.038Z,460
2016-06-14T12:16:42.138Z,445
2016-06-14T12:18:28.624Z,345
2016-06-14T12:19:28.378Z,350
2016-06-14T12:20:28.521Z,360
2016-06-14T12:21:29.790Z,405
2016-06-14T12:22:42.374Z,445
2016-06-14T12:24:41.865Z,405
2016-06-14T12:25:41.884Z,380
2016-06-14T12:26:28.009Z,380
2016-06-14T12:27:27.371Z,365
2016-06-14T12:28:28.014Z,380
2016-06-14T12:29:28.361Z,410
2016-06-14T12:30:42.055Z,355
2016-06-14T12:31:27.148Z,310
2016-06-14T12:32:28.339Z,335
2016-06-14T12:33:42.268Z,325
2016-06-14T12:34:28.190Z,310
2016-06-14T12:35:27.974Z,300
2016-06-14T12:36:28.117Z,310
2016-06-14T12:38:28.265Z,330
2016-06-14T12:39:28.689Z,335
2016-06-14T12:40:42.649Z,345
2016-06-14T12:41:27.524Z,345
2016-06-14T12:42:41.479Z,385
2016-06-14T12:44:28.221Z,350
2016-06-14T12:45:28.317Z,380
2016-06-14T12:46:28.477Z,370
2016-06-14T12:47:29.542Z,370
2016-06-14T12:48:28.514Z,320
2016-06-14T12:49:28.362Z,290
2016-06-14T12:51:28.274Z,250
2016-06-14T12:53:28.201Z,240
2016-06-14T12:54:42.797Z,220
2016-06-14T12:56:56.745Z,180
2016-06-14T12:57:42.948Z,170
2016-06-14T12:58:43.060Z,155
2016-06-14T12:59:28.626Z,165
2016-06-14T13:00:28.301Z,165
2016-06-14T13:01:28.288Z,190
2016-06-14T13:02:42.244Z,230
2016-06-14T13:03:28.560Z,280
2016-06-14T13:04:29.688Z,415
2016-06-14T13:05:42.800Z,445
2016-06-14T13:06:43.006Z,485
2016-06-14T13:07:29.181Z,485
2016-06-14T13:09:28.985Z,445
2016-06-14T13:10:28.582Z,435
2016-06-14T13:11:28.757Z,415
2016-06-14T13:12:28.025Z,405
2016-06-14T13:13:56.875Z,370
2016-06-14T13:14:28.859Z,385
2016-06-14T13:16:29.162Z,370
2016-06-14T13:17:30.072Z,320
2016-06-14T13:18:28.997Z,315
2016-06-14T13:19:28.859Z,330
2016-06-14T13:20:42.785Z,350
2016-06-14T13:21:28.427Z,365
2016-06-14T13:22:28.838Z,375
2016-06-14T13:23:28.419Z,365
2016-06-14T13:24:43.109Z,370
2016-06-14T13:25:28.847Z,375
2016-06-14T13:26:42.725Z,385
2016-06-14T13:27:42.712Z,360
2016-06-14T13:28:28.763Z,370
2016-06-14T13:29:28.546Z,370
2016-06-14T13:30:42.987Z,375
2016-06-14T13:31:28.583Z,390
2016-06-14T13:32:28.931Z,400
2016-06-14T13:33:28.559Z,385
2016-06-14T13:34:28.811Z,385
2016-06-14T13:35:28.831Z,295
2016-06-14T13:37:28.634Z,220
2016-06-14T13:38:28.933Z,195
2016-06-14T13:39:28.952Z,190
2016-06-14T13:40:43.393Z,215
2016-06-14T13:41:43.333Z,220
2016-06-14T13:42:29.320Z,230
2016-06-14T13:43:28.559Z,235
2016-06-14T13:44:42.514Z,265
2016-06-14T13:45:29.159Z,320
2016-06-14T13:46:43.068Z,1050
2016-06-14T13:49:43.279Z,365
2016-06-14T13:50:29.424Z,465
2016-06-14T13:51:43.302Z,380
2016-06-14T13:52:28.601Z,455
2016-06-14T13:53:28.886Z,485
2016-06-14T13:54:29.139Z,435
2016-06-14T13:55:28.689Z,330
2016-06-14T13:57:11.352Z,325
2016-06-14T13:58:29.182Z,310
2016-06-14T13:59:28.983Z,310
2016-06-14T14:00:28.860Z,315
2016-06-14T14:01:56.664Z,310
2016-06-14T14:02:43.601Z,280
2016-06-14T14:03:29.619Z,250
2016-06-14T14:04:29.888Z,230
2016-06-14T14:05:43.204Z,225
2016-06-14T14:06:29.910Z,220
2016-06-14T14:07:43.366Z,230
2016-06-14T14:08:29.697Z,240
2016-06-14T14:09:29.138Z,260
2016-06-14T14:10:29.314Z,365
2016-06-14T14:11:42.269Z,445
2016-06-14T14:12:29.600Z,330
2016-06-14T14:13:29.213Z,375
2016-06-14T14:15:43.501Z,395
2016-06-14T14:16:43.519Z,380
2016-06-14T14:17:29.615Z,350
2016-06-14T14:18:28.791Z,335
2016-06-14T14:19:29.278Z,315
2016-06-14T14:21:29.487Z,285
2016-06-14T14:22:29.506Z,280
2016-06-14T14:23:29.915Z,295
2016-06-14T14:26:30.409Z,355
2016-06-14T14:27:29.302Z,450
2016-06-14T14:28:43.493Z,520
2016-06-14T14:30:30.092Z,525
2016-06-14T14:31:44.018Z,465
2016-06-14T14:32:43.818Z,525
2016-06-14T14:33:29.352Z,455
2016-06-14T14:34:29.574Z,410
2016-06-14T14:35:29.577Z,395
2016-06-14T14:36:29.721Z,365
2016-06-14T14:37:29.755Z,345
2016-06-14T14:38:29.993Z,315
2016-06-14T14:39:29.808Z,280
2016-06-14T14:40:29.828Z,250
2016-06-14T14:42:43.739Z,215
2016-06-14T14:43:43.899Z,210
2016-06-14T14:44:30.495Z,210
2016-06-14T14:45:29.905Z,220
2016-06-14T14:46:44.173Z,275
2016-06-14T14:48:30.727Z,320
2016-06-14T14:49:30.651Z,340
2016-06-14T14:50:30.092Z,345
2016-06-14T14:51:44.079Z,320
2016-06-14T14:52:43.895Z,360
2016-06-14T14:53:29.867Z,320
2016-06-14T14:54:30.058Z,410
2016-06-14T14:55:30.076Z,415
2016-06-14T14:56:30.517Z,345
2016-06-14T14:57:30.301Z,300
2016-06-14T14:58:29.632Z,325
2016-06-14T15:00:29.997Z,630
2016-06-14T15:01:30.579Z,725
2016-06-14T15:02:30.676Z,755
2016-06-14T15:03:29.866Z,865
2016-06-14T15:04:32.291Z,970
2016-06-14T15:06:44.485Z,910
2016-06-14T15:07:44.785Z,825
2016-06-14T15:08:31.288Z,770
2016-06-14T15:09:29.822Z,690
2016-06-14T15:11:30.297Z,605
2016-06-14T15:12:30.566Z,580
2016-06-14T15:15:44.263Z,450
2016-06-14T15:16:30.391Z,420
2016-06-14T15:17:31.675Z,395
2016-06-14T15:18:58.462Z,345
2016-06-14T15:19:31.462Z,320
2016-06-14T15:20:30.043Z,325
2016-06-14T15:21:45.141Z,295
2016-06-14T15:22:30.285Z,280
2016-06-14T15:23:30.569Z,285
2016-06-14T15:24:30.040Z,285
2016-06-14T15:25:45.449Z,285
2016-06-14T15:26:45.625Z,275
2016-06-14T15:27:31.190Z,235
2016-06-14T15:28:30.834Z,265
2016-06-14T15:29:30.587Z,260
2016-06-14T15:30:30.465Z,255
2016-06-14T15:31:31.452Z,215
2016-06-14T15:32:45.283Z,245
2016-06-14T15:33:30.537Z,240